Time;durP1;ratioP1;P1;durP2;ratioP2;P2;SDS_P1;SDS_P2;PMS_P1;PMS_P2;Temp;Humidity;BMP_temperature;BMP_pressure;BME280_temperature;BME280_humidity;BME280_pressure;Samples;Min_cycle;Max_cycle;Signal;HPM_P1;HPM_P2
2022/05/12 00:01:08;;;;;;;3.83;0.73;;;13.20;99.90;;;;;;4977913;28;20027;-79
2022/05/12 00:03:37;;;;;;;3.72;0.50;;;13.10;99.90;;;;;;4968660;28;20050;-81
2022/05/12 00:06:10;;;;;;;7.18;0.50;;;13.10;99.90;;;;;;4916039;28;20258;-83
2022/05/12 00:08:36;;;;;;;;;;;13.00;99.90;;;;;;4942404;28;20058;-81
2022/05/12 00:11:05;;;;;;;;;;;13.00;99.90;;;;;;4975015;28;19914;-83
2022/05/12 00:13:39;;;;;;;;;;;13.00;99.90;;;;;;4978693;28;19910;-84
2022/05/12 00:16:11;;;;;;;;;;;12.90;99.90;;;;;;4944222;28;19922;-87
2022/05/12 00:18:37;;;;;;;;;;;12.90;99.90;;;;;;4977542;28;19921;-90
2022/05/12 00:21:04;;;;;;;;;;;12.80;99.90;;;;;;4978254;28;19914;-88
2022/05/12 00:23:30;;;;;;;;;;;12.80;99.90;;;;;;4974741;28;19930;-83
2022/05/12 00:25:56;;;;;;;;;;;12.80;99.90;;;;;;4940710;28;20924;-83
2022/05/12 00:28:24;;;;;;;;;;;12.80;99.90;;;;;;4963679;28;19910;-88
2022/05/12 00:30:51;;;;;;;;;;;12.80;99.90;;;;;;4985357;28;19910;-82
2022/05/12 00:33:22;;;;;;;;;;;12.70;99.90;;;;;;4969434;28;19921;-81
2022/05/12 00:35:48;;;;;;;;;;;12.70;99.90;;;;;;4957857;28;19922;-80
2022/05/12 00:38:14;;;;;;;;;;;12.70;99.90;;;;;;4961543;28;19914;-81
2022/05/12 00:40:43;;;;;;;;;;;12.60;99.90;;;;;;4937856;28;20354;-80
2022/05/12 00:43:29;;;;;;;;;;;12.60;99.90;;;;;;4974901;28;19918;-82
2022/05/12 00:46:01;;;;;;;;;;;12.60;99.90;;;;;;4959736;28;19926;-81
2022/05/12 00:48:30;;;;;;;;;;;12.60;99.90;;;;;;4969083;28;19914;-85
2022/05/12 00:50:59;;;;;;;;;;;12.50;99.90;;;;;;4945876;28;19917;-84
2022/05/12 00:53:42;;;;;;;;;;;12.50;99.90;;;;;;4963320;28;19921;-83
2022/05/12 00:56:12;;;;;;;;;;;12.50;99.90;;;;;;4949763;28;19918;-85
2022/05/12 00:59:24;;;;;;;;;;;12.40;99.90;;;;;;4950076;28;19925;-82
2022/05/12 01:01:38;;;;;;;;;;;12.40;99.90;;;;;;4966134;28;19925;-91
2022/05/12 01:04:05;;;;;;;;;;;12.40;99.90;;;;;;4953150;28;20366;-90
2022/05/12 01:06:32;;;;;;;;;;;12.30;99.90;;;;;;4962873;28;19910;-90
2022/05/12 01:09:00;;;;;;;;;;;12.30;99.90;;;;;;4922647;28;19925;-82
2022/05/12 01:11:28;;;;;;;;;;;12.30;99.90;;;;;;4952289;28;20289;-82
2022/05/12 01:14:17;;;;;;;;;;;12.20;99.90;;;;;;4968216;28;19978;-82
2022/05/12 01:16:47;;;;;;;;;;;12.20;99.90;;;;;;4972216;28;19913;-81
2022/05/12 01:19:32;;;;;;;;;;;12.10;99.90;;;;;;4973860;28;19917;-81
2022/05/12 01:21:59;;;;;;;;;;;12.10;99.90;;;;;;4960378;28;19913;-82
2022/05/12 01:24:42;;;;;;;;;;;12.10;99.90;;;;;;4959547;28;19917;-81
2022/05/12 01:27:19;;;;;;;;;;;12.10;99.90;;;;;;4968845;28;19926;-82
2022/05/12 01:29:51;;;;;;;;;;;12.00;99.90;;;;;;4980078;28;19910;-82
2022/05/12 01:32:19;;;;;;;;;;;12.00;99.90;;;;;;4956319;28;20304;-82
2022/05/12 01:35:06;;;;;;;;;;;12.00;99.90;;;;;;4976659;28;19914;-82
2022/05/12 01:37:37;;;;;;;;;;;11.90;99.90;;;;;;4953677;28;19918;-83
2022/05/12 01:40:04;;;;;;;;;;;11.90;99.90;;;;;;4970417;28;19910;-82
2022/05/12 01:42:30;;;;;;;;;;;11.80;99.90;;;;;;4958778;28;19910;-91
2022/05/12 01:45:03;;;;;;;;;;;11.80;99.90;;;;;;4969079;28;20249;-92
2022/05/12 01:47:39;;;;;;;;;;;11.80;99.90;;;;;;4930013;28;19918;-93
2022/05/12 01:50:11;;;;;;;;;;;11.70;99.90;;;;;;4964695;28;19933;-92
2022/05/12 01:52:43;;;;;;;;;;;11.70;99.90;;;;;;4946535;28;19920;-93
2022/05/12 01:55:11;;;;;;;;;;;11.70;99.90;;;;;;4957151;28;19914;-92
2022/05/12 01:57:43;;;;;;;;;;;11.60;99.90;;;;;;4942866;28;19919;-92
2022/05/12 02:00:13;;;;;;;;;;;11.60;99.90;;;;;;4974791;28;19925;-92
2022/05/12 02:02:39;;;;;;;;;;;11.60;99.90;;;;;;4983693;28;19910;-91
2022/05/12 02:05:24;;;;;;;;;;;11.60;99.90;;;;;;4950179;28;19910;-90
2022/05/12 02:07:58;;;;;;;;;;;11.50;99.90;;;;;;4970303;28;19915;-91
2022/05/12 02:10:29;;;;;;;;;;;11.50;99.90;;;;;;4965416;28;19921;-90
2022/05/12 02:12:59;;;;;;;;;;;11.50;99.90;;;;;;4963204;28;19925;-91
2022/05/12 02:15:26;;;;;;;;;;;11.50;99.90;;;;;;4972056;28;19911;-91
2022/05/12 02:18:01;;;;;;;;;;;11.50;99.90;;;;;;4956947;28;19917;-90
2022/05/12 02:20:31;;;;;;;;;;;11.50;99.90;;;;;;4971000;28;19910;-90
2022/05/12 02:22:58;;;;;;;;;;;11.40;99.90;;;;;;4962672;28;19910;-90
2022/05/12 02:25:27;;;;;;;;;;;11.40;99.90;;;;;;4964817;28;20009;-92
2022/05/12 02:27:55;;;;;;;;;;;11.40;99.90;;;;;;4970542;28;20370;-91
2022/05/12 02:30:29;;;;;;;;;;;11.40;99.90;;;;;;4971167;28;19914;-91
2022/05/12 02:32:55;;;;;;;;;;;11.30;99.90;;;;;;4971762;28;19921;-90
2022/05/12 02:35:26;;;;;;;;;;;11.30;99.90;;;;;;4960950;28;19910;-89
2022/05/12 02:38:08;;;;;;;;;;;11.30;99.90;;;;;;4946732;28;20023;-90
2022/05/12 02:40:37;;;;;;;;;;;11.30;99.90;;;;;;4970695;28;19918;-90
2022/05/12 02:43:25;;;;;;;;;;;11.20;99.90;;;;;;4947020;28;19921;-90
2022/05/12 02:45:58;;;;;;;;;;;11.20;99.90;;;;;;4970381;28;19919;-91
2022/05/12 02:48:31;;;;;;;;;;;11.20;99.90;;;;;;4956537;28;19910;-90
2022/05/12 02:51:09;;;;;;;;;;;11.20;99.90;;;;;;4966689;28;19917;-91
2022/05/12 02:53:42;;;;;;;;;;;11.20;99.90;;;;;;4964876;28;19929;-91
2022/05/12 02:56:11;;;;;;;;;;;11.10;99.90;;;;;;4967112;28;19915;-90
2022/05/12 02:58:38;;;;;;;;;;;11.10;99.90;;;;;;4943158;28;19914;-90
2022/05/12 03:01:08;;;;;;;;;;;11.10;99.90;;;;;;4959974;28;19929;-91
2022/05/12 03:03:35;;;;;;;;;;;11.10;99.90;;;;;;4959784;28;19943;-91
2022/05/12 03:06:02;;;;;;;;;;;11.10;99.90;;;;;;4969817;28;20307;-92
2022/05/12 03:08:32;;;;;;;;;;;11.00;99.90;;;;;;4972372;28;19925;-91
2022/05/12 03:10:58;;;;;;;;;;;11.00;99.90;;;;;;4965514;28;19910;-90
2022/05/12 03:13:26;;;;;;;;;;;11.00;99.90;;;;;;4981503;28;19937;-90
2022/05/12 03:15:54;;;;;;;;;;;11.00;99.90;;;;;;4952052;28;19917;-91
2022/05/12 03:18:40;;;;;;;;;;;11.00;99.90;;;;;;4951504;28;20038;-91
2022/05/12 03:21:10;;;;;;;;;;;11.00;99.90;;;;;;4977587;28;20361;-91
2022/05/12 03:23:37;;;;;;;;;;;11.00;99.90;;;;;;4946158;28;19910;-91
2022/05/12 03:26:04;;;;;;;;;;;11.00;99.90;;;;;;4956491;28;19922;-91
2022/05/12 03:28:31;;;;;;;;;;;11.00;99.90;;;;;;4964188;28;19918;-91
2022/05/12 03:30:57;;;;;;;;;;;11.00;99.90;;;;;;4962832;28;19917;-91
2022/05/12 03:33:24;;;;;;;;;;;10.90;99.90;;;;;;4965386;28;19914;-90
2022/05/12 03:35:50;;;;;;;;;;;10.90;99.90;;;;;;4959161;28;19918;-91
2022/05/12 03:38:19;;;;;;;;;;;10.90;99.90;;;;;;4948582;28;19910;-90
2022/05/12 03:40:46;;;;;;;;;;;10.90;99.90;;;;;;4962408;28;20266;-92
2022/05/12 03:45:59;;;;;;;;;;;10.90;99.90;;;;;;4962524;28;19921;-91
2022/05/12 03:48:25;;;;;;;;;;;10.90;99.90;;;;;;4962061;28;19918;-91
2022/05/12 03:50:52;;;;;;;;;;;10.90;99.90;;;;;;4971050;28;19925;-91
2022/05/12 03:53:18;;;;;;;;;;;10.90;99.90;;;;;;4972181;28;19918;-91
2022/05/12 03:55:44;;;;;;;;;;;10.90;99.90;;;;;;4942575;28;20286;-91
2022/05/12 03:58:11;;;;;;;;;;;10.90;99.90;;;;;;4954969;28;19910;-92
2022/05/12 04:00:40;;;;;;;;;;;10.90;99.90;;;;;;4961388;28;19911;-91
2022/05/12 04:03:07;;;;;;;;;;;10.90;99.90;;;;;;4971518;28;19921;-91
2022/05/12 04:05:35;;;;;;;;;;;10.90;99.90;;;;;;4958509;28;20358;-90
2022/05/12 04:08:01;;;;;;;;;;;10.90;99.90;;;;;;4956913;28;19949;-91
2022/05/12 04:10:29;;;;;;;;;;;10.90;99.90;;;;;;4949267;28;19910;-91
2022/05/12 04:12:55;;;;;;;;;;;10.90;99.90;;;;;;4972192;28;19918;-92
2022/05/12 04:15:21;;;;;;;;;;;10.90;99.90;;;;;;4970097;28;19914;-91
2022/05/12 04:17:58;;;;;;;;;;;11.00;99.90;;;;;;4943822;28;20362;-90
2022/05/12 04:20:26;;;;;;;;;;;11.00;99.90;;;;;;4950177;28;19910;-83
2022/05/12 04:22:53;;;;;;;;;;;11.00;99.90;;;;;;4959814;28;19910;-87
2022/05/12 04:25:20;;;;;;;;;;;11.10;99.90;;;;;;4961252;28;19910;-82
2022/05/12 04:27:49;;;;;;;;;;;11.10;99.90;;;;;;4953672;28;19914;-86
2022/05/12 04:30:17;;;;;;;;;;;11.10;99.90;;;;;;4979554;28;19914;-88
2022/05/12 04:32:43;;;;;;;;;;;11.20;99.90;;;;;;4960764;28;19937;-91
2022/05/12 04:35:12;;;;;;;;;;;11.30;99.90;;;;;;4967964;28;19918;-89
2022/05/12 04:37:39;;;;;;;;;;;11.30;99.90;;;;;;4943004;28;19910;-88
2022/05/12 04:40:08;;;;;;;;;;;11.40;99.90;;;;;;4971184;28;20322;-89
2022/05/12 04:42:34;;;;;;;;;;;11.40;99.90;;;;;;4948564;28;19911;-87
2022/05/12 04:45:01;;;;;;;;;;;11.50;99.90;;;;;;4954288;28;19914;-86
2022/05/12 04:47:30;;;;;;;;;;;11.60;99.90;;;;;;4955467;28;19925;-86
2022/05/12 04:49:58;;;;;;;;;;;11.70;99.90;;;;;;4950353;28;19914;-85
2022/05/12 04:52:25;;;;;;;;;;;11.70;99.90;;;;;;4983370;28;20324;-87
2022/05/12 04:54:54;;;;;;;;;;;11.80;99.90;;;;;;4954319;28;19922;-90
2022/05/12 04:57:21;;;;;;;;;;;11.90;99.90;;;;;;4962963;28;19911;-81
2022/05/12 04:59:49;;;;;;;;;;;12.00;99.90;;;;;;4979730;28;20367;-83
2022/05/12 05:02:15;;;;;;;;;;;12.20;99.90;;;;;;4973064;28;19917;-85
2022/05/12 05:04:42;;;;;;;;;;;12.30;99.90;;;;;;4944654;28;19915;-87
2022/05/12 05:07:10;;;;;;;;;;;12.40;99.90;;;;;;4949363;28;19918;-90
2022/05/12 05:09:41;;;;;;;;;;;12.50;99.90;;;;;;4951429;28;19914;-90
2022/05/12 05:12:08;;;;;;;;;;;12.60;99.90;;;;;;4961514;28;19925;-90
2022/05/12 05:14:34;;;;;;;;;;;12.70;99.90;;;;;;4944308;28;19910;-90
2022/05/12 05:17:00;;;;;;;;;;;12.90;99.90;;;;;;4958708;28;19918;-90
2022/05/12 05:19:26;;;;;;;;;;;13.00;99.90;;;;;;4954215;28;20354;-91
2022/05/12 05:21:53;;;;;;;;;;;13.10;99.90;;;;;;4958958;28;20362;-91
2022/05/12 05:24:20;;;;;;;;;;;13.20;99.90;;;;;;4945812;28;19918;-92
2022/05/12 05:26:49;;;;;;;;;;;13.30;99.90;;;;;;4948941;28;19918;-91
2022/05/12 05:29:15;;;;;;;;;;;13.50;99.90;;;;;;4963099;28;19910;-83
2022/05/12 05:31:42;;;;;;;;;;;13.60;99.90;;;;;;4974162;28;19914;-81
2022/05/12 05:34:09;;;;;;;;;;;13.70;99.90;;;;;;4977451;28;20259;-91
2022/05/12 05:36:39;;;;;;;;;;;13.80;99.90;;;;;;4962602;28;19910;-83
2022/05/12 05:39:07;;;;;;;;;;;13.90;99.90;;;;;;4948726;28;19910;-79
2022/05/12 05:41:36;;;;;;;;;;;14.10;99.90;;;;;;4959442;28;19910;-84
2022/05/12 05:44:03;;;;;;;;;;;14.20;99.90;;;;;;4938398;28;19921;-83
2022/05/12 05:46:33;;;;;;;;;;;14.30;99.90;;;;;;4964231;28;19926;-85
2022/05/12 05:48:59;;;;;;;;;;;14.40;99.90;;;;;;4963353;28;19921;-84
2022/05/12 05:54:15;;;;;;;;;;;14.60;99.90;;;;;;4961014;28;19918;-85
2022/05/12 05:56:42;;;;;;;;;;;14.70;99.90;;;;;;4964382;28;19922;-82
2022/05/12 05:59:09;;;;;;;;;;;14.90;99.90;;;;;;4966971;28;19925;-82
2022/05/12 06:01:37;;;;;;;;;;;15.00;99.90;;;;;;4962874;28;20290;-83
2022/05/12 06:04:10;;;;;;;;;;;15.20;99.90;;;;;;4974265;28;19925;-82
2022/05/12 06:06:37;;;;;;;;;;;15.30;99.90;;;;;;4980876;28;20286;-87
2022/05/12 06:09:04;;;;;;;;;;;15.40;99.90;;;;;;4938601;28;19918;-81
2022/05/12 06:11:31;;;;;;;;;;;15.60;99.90;;;;;;4962340;28;19925;-82
2022/05/12 06:13:57;;;;;;;;;;;15.60;99.90;;;;;;4958554;28;19922;-81
2022/05/12 06:16:27;;;;;;;;;;;15.80;99.90;;;;;;4977583;28;19921;-81
2022/05/12 06:18:53;;;;;;;;;;;15.90;99.90;;;;;;4937661;28;20263;-80
2022/05/12 06:21:22;;;;;;;;;;;16.00;99.90;;;;;;4981356;28;19910;-88
2022/05/12 06:23:49;;;;;;;;;;;16.10;99.90;;;;;;4944128;28;19914;-89
2022/05/12 06:26:15;;;;;;;;;;;16.20;99.90;;;;;;4967751;28;19918;-81
2022/05/12 06:28:45;;;;;;;;;;;16.40;99.90;;;;;;4977007;28;19918;-80
2022/05/12 06:31:15;;;;;;;;;;;16.70;99.90;;;;;;4968417;28;19954;-81
2022/05/12 06:33:42;;;;;;;;;;;17.00;99.90;;;;;;4954596;28;19927;-81
2022/05/12 06:36:08;;;;;;;;;;;17.30;99.90;;;;;;4961411;28;20370;-81
2022/05/12 06:38:47;;;;;;;;;;;17.60;99.90;;;;;;4985920;28;20828;-88
2022/05/12 06:41:16;;;;;;;;;;;17.80;99.90;;;;;;4971828;28;20024;-88
2022/05/12 06:43:45;;;;;;;;;;;17.90;99.90;;;;;;4945247;28;19917;-88
2022/05/12 06:46:21;;;;;;;;;;;18.00;99.90;;;;;;4948765;28;19922;-88
2022/05/12 06:48:50;;;;;;;;;;;18.10;99.90;;;;;;4969277;28;19919;-88
2022/05/12 06:51:20;;;;;;;;;;;18.30;99.90;;;;;;4963255;28;19918;-88
2022/05/12 06:53:46;;;;;;;;;;;18.50;99.90;;;;;;4969197;28;19922;-82
2022/05/12 06:56:12;;;;;;;;;;;18.60;99.90;;;;;;4967849;28;19910;-82
2022/05/12 06:58:39;;;;;;;;;;;18.70;99.90;;;;;;4946858;28;19918;-81
2022/05/12 07:01:06;;;;;;;;;;;18.70;99.90;;;;;;4963061;28;19921;-81
2022/05/12 07:03:33;;;;;;;;;;;18.80;99.90;;;;;;4962203;28;19941;-81
2022/05/12 07:06:01;;;;;;;;;;;18.70;99.90;;;;;;4964079;28;19918;-82
2022/05/12 07:08:42;;;;;;;;;;;18.70;99.90;;;;;;4979728;28;19928;-88
2022/05/12 07:11:12;;;;;;;;;;;18.70;99.90;;;;;;4957039;28;19930;-89
2022/05/12 07:13:38;;;;;;;;;;;18.70;99.90;;;;;;4958734;28;19917;-88
2022/05/12 07:16:06;;;;;;;;;;;18.80;99.90;;;;;;4953004;28;20325;-82
2022/05/12 07:18:34;;;;;;;;;;;18.80;99.90;;;;;;4975979;28;19917;-81
2022/05/12 07:26:39;;;;;;;;;;;18.90;99.90;;;;;;4954678;28;19918;-82
2022/05/12 07:29:11;;;;;;;;;;;18.90;99.90;;;;;;4967675;28;19910;-82
2022/05/12 07:31:38;;;;;;;;;;;19.00;99.90;;;;;;4949099;28;20377;-82
2022/05/12 07:34:08;;;;;;;;;;;18.90;99.90;;;;;;4953031;28;19914;-82
2022/05/12 07:36:37;;;;;;;;;;;18.90;99.90;;;;;;4947115;28;19914;-81
2022/05/12 07:39:04;;;;;;;;;;;19.00;99.90;;;;;;4985042;28;19918;-82
2022/05/12 07:41:30;;;;;;;;;;;19.10;99.90;;;;;;4954533;28;19914;-82
2022/05/12 07:43:57;;;;;;;;;;;19.00;99.90;;;;;;4962480;28;19978;-81
2022/05/12 07:46:25;;;;;;;;;;;19.00;99.90;;;;;;4960139;28;19910;-81
2022/05/12 07:48:51;;;;;;;;;;;19.00;99.90;;;;;;4952222;28;19910;-82
2022/05/12 07:51:18;;;;;;;;;;;19.00;99.90;;;;;;4956193;28;19911;-82
2022/05/12 07:53:47;;;;;;;;;;;19.20;99.90;;;;;;4954722;28;19929;-89
2022/05/12 07:56:15;;;;;;;;;;;19.30;99.90;;;;;;4951158;28;19917;-88
2022/05/12 07:58:42;;;;;;;;;;;19.50;99.90;;;;;;4971138;28;19910;-89
2022/05/12 08:01:10;;;;;;;;;;;19.60;99.20;;;;;;4953159;28;20062;-89
2022/05/12 08:03:37;;;;;;;;;;;19.70;99.10;;;;;;4944230;28;20002;-89
2022/05/12 08:06:03;;;;;;;;;;;19.80;98.50;;;;;;4949097;28;20721;-88
2022/05/12 08:08:32;;;;;;;;;;;19.90;98.30;;;;;;4944401;28;19918;-87
2022/05/12 08:10:59;;;;;;;;;;;20.00;97.40;;;;;;4967612;28;19930;-87
2022/05/12 08:13:25;;;;;;;;;;;20.00;97.20;;;;;;4948044;28;19925;-89
2022/05/12 08:15:53;;;;;;;;;;;20.10;97.20;;;;;;4961893;28;19918;-89
2022/05/12 08:18:23;;;;;;;;;;;20.20;96.50;;;;;;4939675;28;19911;-89
2022/05/12 08:20:52;;;;;;;;;;;20.10;96.30;;;;;;4947451;28;19910;-90
2022/05/12 08:23:18;;;;;;;;;;;20.20;96.40;;;;;;4947197;28;19910;-90
2022/05/12 08:25:45;;;;;;;;;;;20.30;96.10;;;;;;4948842;28;19940;-90
2022/05/12 08:28:16;;;;;;;;;;;20.50;95.90;;;;;;4947126;28;19910;-91
2022/05/12 08:30:46;;;;;;;;;;;20.60;95.10;;;;;;4955694;28;20346;-91
2022/05/12 08:33:17;;;;;;;;;;;20.80;94.50;;;;;;4955238;28;19918;-84
2022/05/12 08:35:46;;;;;;;;;;;20.90;94.10;;;;;;4939121;28;19917;-84
2022/05/12 08:38:21;;;;;;;;;;;21.00;93.70;;;;;;4947853;28;19918;-84
2022/05/12 08:40:48;;;;;;;;;;;20.80;93.30;;;;;;4967236;28;19910;-83
2022/05/12 08:43:16;;;;;;;;;;;20.50;91.40;;;;;;4975892;28;19926;-83
2022/05/12 08:45:43;;;;;;;;;;;20.30;92.20;;;;;;4967591;28;20266;-84
2022/05/12 08:48:12;;;;;;;;;;;20.20;92.80;;;;;;4958994;28;19931;-84
2022/05/12 08:50:48;;;;;;;;;;;20.40;92.70;;;;;;4945300;28;19922;-84
2022/05/12 08:53:20;;;;;;;;;;;20.50;92.60;;;;;;4955265;28;20366;-84
2022/05/12 08:56:00;;;;;;;;;;;20.70;91.90;;;;;;4971373;28;19918;-83
2022/05/12 08:58:58;;;;;;;;;;;20.90;91.60;;;;;;4944130;28;19918;-85
2022/05/12 09:01:41;;;;;;;;;;;21.00;90.90;;;;;;4970961;28;19918;-84
2022/05/12 09:04:30;;;;;;;;;;;21.10;90.40;;;;;;4987652;28;19911;-84
2022/05/12 09:07:10;;;;;;;;;;;21.00;90.00;;;;;;4961323;28;19925;-85
2022/05/12 09:09:57;;;;;;;;;;;20.80;87.90;;;;;;4986825;28;19925;-84
2022/05/12 09:12:49;;;;;;;;;;;20.70;87.60;;;;;;4965804;28;19917;-84
2022/05/12 09:15:17;;;;;;;;;;;20.80;87.90;;;;;;4969171;28;19924;-84
2022/05/12 09:17:56;;;;;;;;;;;21.10;88.40;;;;;;4981302;28;19918;-85
2022/05/12 09:20:48;;;;;;;;;;;21.40;87.90;;;;;;4978363;28;19921;-85
2022/05/12 09:23:39;;;;;;;;;;;21.80;86.00;;;;;;4937121;28;19914;-85
2022/05/12 09:26:29;;;;;;;;;;;22.00;85.70;;;;;;4970781;28;19918;-83
2022/05/12 09:29:18;;;;;;;;;;;22.00;84.00;;;;;;4953963;28;19910;-84
2022/05/12 09:35:12;;;;;;;;;;;21.90;83.10;;;;;;4955911;28;19914;-84
2022/05/12 09:38:21;;;;;;;;;;;21.90;82.60;;;;;;4977031;28;19910;-86
2022/05/12 09:41:25;;;;;;;;;;;21.80;80.80;;;;;;4971704;28;19933;-85
2022/05/12 09:44:23;;;;;;;;;;;22.00;80.10;;;;;;4946855;28;20293;-91
2022/05/12 09:46:58;;;;;;;;;;;22.10;80.10;;;;;;4955335;28;19917;-91
2022/05/12 09:49:40;;;;;;;;;;;22.30;79.10;;;;;;4962381;28;19914;-92
2022/05/12 09:52:36;;;;;;;;;;;22.50;78.20;;;;;;4970022;28;19918;-90
2022/05/12 09:55:21;;;;;;;;;;;22.70;76.60;;;;;;4975911;28;19929;-91
2022/05/12 09:58:11;;;;;;;;;;;23.10;74.50;;;;;;4957167;28;19914;-90
2022/05/12 10:00:59;;;;;;;;;;;23.10;73.40;;;;;;4964302;28;19910;-90
2022/05/12 10:13:53;;;;;;;;;;;23.50;70.70;;;;;;4931351;29;19918;-89
2022/05/12 10:16:44;;;;;;;;;;;23.30;68.90;;;;;;4946318;29;20282;-90
2022/05/12 10:19:29;;;;;;;;;;;23.40;68.90;;;;;;4938049;29;19914;-91
2022/05/12 10:22:33;;;;;;;;;;;23.60;68.50;;;;;;4940092;29;19918;-92
2022/05/12 10:25:39;;;;;;;;;;;24.00;67.40;;;;;;4948413;29;19910;-89
2022/05/12 10:28:45;;;;;;;;;;;;;;;;;;;;;
2022/05/12 10:32:12;;;;;;;;;;;24.50;65.20;;;;;;4933261;29;19911;-90
2022/05/12 10:34:52;;;;;;;;;;;24.90;62.90;;;;;;4953166;29;19914;-90
2022/05/12 10:41:56;;;;;;;;;;;25.00;60.20;;;;;;4965616;29;19911;-91
2022/05/12 10:44:53;;;;;;;;;;;24.90;60.20;;;;;;4953404;29;19918;-89
2022/05/12 10:47:27;;;;;;;;;;;25.00;59.40;;;;;;4950848;29;19911;-90
2022/05/12 10:50:26;;;;;;;;;;;25.40;59.50;;;;;;4946143;29;19910;-89
2022/05/12 10:53:07;;;;;;;;;;;25.60;57.80;;;;;;4963035;29;19917;-89
2022/05/12 10:55:52;;;;;;;;;;;25.60;56.80;;;;;;4927485;29;19925;-89
2022/05/12 11:02:33;;;;;;;;;;;25.80;57.20;;;;;;4954788;29;20296;-89
2022/05/12 11:05:23;;;;;;;;;;;26.10;56.00;;;;;;4941884;29;19917;-88
2022/05/12 11:08:12;;;;;;;;;;;26.30;55.00;;;;;;4925199;28;19917;-89
2022/05/12 11:10:52;;;;;;;;;;;26.50;54.70;;;;;;4972821;28;19915;-90
2022/05/12 11:13:19;;;;;;;;;;;26.90;54.50;;;;;;4970827;28;19910;-88
2022/05/12 11:16:35;;;;;;;;;;;27.10;53.80;;;;;;4976570;28;19934;-89
2022/05/12 11:19:17;;;;;;;;;;;27.00;51.90;;;;;;4943640;28;19914;-89
2022/05/12 11:22:03;;;;;;;;;;;26.80;52.50;;;;;;4962873;28;19910;-90
2022/05/12 11:24:34;;;;;;;;;;;26.80;51.80;;;;;;4962015;28;19918;-88
2022/05/12 11:27:12;;;;;;;;;;;27.00;52.40;;;;;;4977327;28;20017;-87
2022/05/12 11:30:09;;;;;;;;;;;27.20;51.30;;;;;;4962705;28;19921;-87
2022/05/12 11:32:47;;;;;;;;;;;27.20;50.40;;;;;;4971879;28;20409;-90
2022/05/12 11:35:20;;;;;;;;;;;27.10;51.00;;;;;;4973441;28;19915;-83
2022/05/12 11:37:50;;;;;;;;;;;27.30;51.00;;;;;;4948393;28;19917;-82
2022/05/12 11:40:40;;;;;;;;;;;27.60;50.30;;;;;;4955673;28;19910;-84
2022/05/12 11:46:18;;;;;;;;;;;27.90;49.20;;;;;;4952376;28;19921;-83
2022/05/12 11:48:52;;;;;;;;;;;28.10;47.10;;;;;;4975916;28;19910;-88
2022/05/12 11:51:38;;;;;;;;;;;28.10;47.50;;;;;;4962764;28;20359;-89
2022/05/12 11:54:07;;;;;;;;;;;28.20;47.50;;;;;;4949175;28;19914;-83
2022/05/12 11:56:58;;;;;;;;;;;28.30;46.70;;;;;;4957636;28;19926;-88
2022/05/12 11:59:33;;;;;;;;;;;28.40;46.30;;;;;;4984269;28;20475;-88
2022/05/12 12:02:01;;;;;;;;;;;28.50;45.60;;;;;;4984855;28;19910;-89
2022/05/12 12:04:43;;;;;;;;;;;28.70;45.00;;;;;;4971587;28;19910;-88
2022/05/12 12:07:14;;;;;;;;;;;28.90;44.30;;;;;;4958535;28;19910;-87
2022/05/12 12:09:44;;;;;;;;;;;29.10;42.80;;;;;;4956347;28;19914;-88
2022/05/12 12:12:31;;;;;;;;;;;29.30;43.20;;;;;;4952462;28;19910;-81
2022/05/12 12:15:01;;;;;;;;;;;29.70;42.60;;;;;;4971027;28;19925;-82
2022/05/12 12:17:39;;;;;;;;;;;30.20;42.00;;;;;;4938347;28;19910;-81
2022/05/12 12:20:08;;;;;;;;;;;30.50;41.60;;;;;;4985189;28;20278;-82
2022/05/12 12:22:37;;;;;;;;;;;30.70;41.50;;;;;;4953488;28;20313;-81
2022/05/12 12:25:16;;;;;;;;;;;31.00;40.40;;;;;;4967349;28;19910;-82
2022/05/12 12:27:42;;;;;;;;;;;31.10;40.00;;;;;;4958390;28;19911;-82
2022/05/12 12:30:26;;;;;;;;;;;31.00;40.10;;;;;;4939963;28;19910;-82
2022/05/12 12:33:12;;;;;;;;;;;30.90;40.00;;;;;;4952134;28;19917;-82
2022/05/12 12:36:01;;;;;;;;;;;31.00;40.00;;;;;;4960305;28;19921;-82
2022/05/12 12:38:41;;;;;;;;;;;31.30;39.70;;;;;;4984688;28;19921;-82
2022/05/12 12:41:08;;;;;;;;;;;31.40;38.40;;;;;;4938650;28;20550;-82
2022/05/12 12:43:38;;;;;;;;;;;31.50;38.60;;;;;;4947280;28;19921;-83
2022/05/12 12:46:19;;;;;;;;;;;31.60;38.30;;;;;;4982677;28;19925;-82
2022/05/12 12:48:51;;;;;;;;;;;31.70;38.10;;;;;;4961215;28;20289;-83
2022/05/12 12:51:54;;;;;;;;;;;32.10;38.10;;;;;;4953855;28;19919;-83
2022/05/12 12:57:26;;;;;;;;;;;32.50;37.30;;;;;;4961040;28;19910;-87
2022/05/12 13:00:15;;;;;;;;;;;32.50;36.50;;;;;;4954325;28;19906;-84
2022/05/12 13:03:27;;;;;;;;;;;32.70;37.40;;;;;;4983355;28;19918;-85
2022/05/12 13:06:06;;;;;;;;;;;32.70;36.70;;;;;;4971648;28;19925;-84
2022/05/12 13:09:01;;;;;;;;;;;32.70;36.80;;;;;;4969463;28;20373;-80
2022/05/12 13:11:28;;;;;;;;;;;32.70;36.30;;;;;;4977211;28;19910;-80
2022/05/12 13:13:56;;;;;;;;;;;32.40;36.20;;;;;;4970785;28;19933;-92
2022/05/12 13:16:24;;;;;;;;;;;32.00;36.50;;;;;;4969272;28;19917;-93
2022/05/12 13:18:52;;;;;;;;;;;31.90;36.10;;;;;;4951821;28;19910;-92
2022/05/12 13:21:20;;;;;;;;;;;32.00;36.40;;;;;;4966149;28;19925;-87
2022/05/12 13:23:57;;;;;;;;;;;32.10;36.40;;;;;;4971201;28;19936;-87
2022/05/12 13:26:26;;;;;;;;;;;32.50;36.30;;;;;;4951644;28;19917;-89
2022/05/12 13:28:53;;;;;;;;;;;33.00;35.00;;;;;;4963163;28;20302;-89
2022/05/12 13:31:35;;;;;;;;;;;33.20;34.80;;;;;;4964388;28;19910;-89
2022/05/12 13:34:22;;;;;;;;;;;33.50;35.10;;;;;;4939724;28;19914;-90
2022/05/12 13:36:49;;;;;;;;;;;34.00;34.50;;;;;;4919540;28;19921;-88
2022/05/12 13:39:35;;;;;;;;;;;34.20;34.00;;;;;;4949113;28;19941;-90
2022/05/12 13:42:23;;;;;;;;;;;34.10;33.40;;;;;;4936079;28;20286;-89
2022/05/12 13:44:57;;;;;;;;;;;34.20;33.70;;;;;;4939375;28;19917;-93
2022/05/12 13:47:47;;;;;;;;;;;34.10;33.80;;;;;;4944826;28;19910;-88
2022/05/12 13:50:20;;;;;;;;;;;33.50;34.00;;;;;;4916136;28;19925;-89
2022/05/12 13:52:52;;;;;;;;;;;33.50;33.80;;;;;;4953943;28;19910;-89
2022/05/12 13:55:19;;;;;;;;;;;33.70;33.50;;;;;;4940650;28;19921;-89
2022/05/12 13:57:54;;;;;;;;;;;33.80;33.90;;;;;;4945901;28;19929;-89
2022/05/12 14:00:39;;;;;;;;;;;34.20;34.10;;;;;;4957541;28;19908;-91
2022/05/12 14:03:14;;;;;;;;;;;34.80;33.90;;;;;;4942689;28;20362;-91
2022/05/12 14:05:42;;;;;;;;;;;35.00;33.00;;;;;;4924195;28;19928;-90
2022/05/12 14:08:14;;;;;;;;;;;34.10;33.30;;;;;;4947756;28;19914;-88
2022/05/12 14:10:45;;;;;;;;;;;33.20;33.90;;;;;;4974272;28;19990;-90
2022/05/12 14:21:48;;;;;;;;;;;34.20;33.30;;;;;;4970591;28;19934;-90
2022/05/12 14:24:15;;;;;;;;;;;34.60;33.60;;;;;;4937140;28;19918;-91
2022/05/12 14:26:45;;;;;;;;;;;34.80;32.00;;;;;;4952249;28;19937;-84
2022/05/12 14:29:18;;;;;;;;;;;34.80;32.10;;;;;;4977472;28;19925;-83
2022/05/12 14:31:46;;;;;;;;;;;34.90;32.40;;;;;;4941064;28;19922;-83
2022/05/12 14:34:15;;;;;;;;;;;35.30;32.10;;;;;;4969448;28;20258;-83
2022/05/12 14:36:42;;;;;;;;;;;35.70;31.80;;;;;;4947936;28;20009;-83
2022/05/12 14:39:11;;;;;;;;;;;35.70;31.60;;;;;;4982664;28;20247;-83
2022/05/12 14:41:40;;;;;;;;;;;35.60;31.90;;;;;;4962070;28;19910;-83
2022/05/12 14:44:07;;;;;;;;;;;35.20;32.10;;;;;;4970029;28;19911;-92
2022/05/12 14:46:35;;;;;;;;;;;34.80;32.70;;;;;;4969103;28;19910;-83
2022/05/12 14:49:04;;;;;;;;;;;34.70;32.20;;;;;;4984347;28;19914;-82
2022/05/12 14:51:41;;;;;;;;;;;34.80;31.80;;;;;;4967038;28;19914;-85
2022/05/12 14:54:16;;;;;;;;;;;35.10;31.40;;;;;;4948919;28;20290;-82
2022/05/12 14:56:56;;;;;;;;;;;35.20;30.90;;;;;;4963969;28;19914;-83
2022/05/12 14:59:30;;;;;;;;;;;35.30;30.80;;;;;;4973599;28;19921;-90
2022/05/12 15:01:57;;;;;;;;;;;35.30;30.80;;;;;;4958674;28;19917;-83
2022/05/12 15:04:30;;;;;;;;;;;35.00;31.20;;;;;;4955767;28;19921;-82
2022/05/12 15:06:57;;;;;;;;;;;34.60;31.50;;;;;;4965817;28;19925;-82
2022/05/12 15:09:30;;;;;;;;;;;34.70;31.80;;;;;;4963954;28;19931;-87
2022/05/12 15:12:17;;;;;;;;;;;34.70;31.70;;;;;;4976363;28;19910;-82
2022/05/12 15:14:56;;;;;;;;;;;35.10;31.60;;;;;;4961311;28;19944;-82
2022/05/12 15:17:41;;;;;;;;;;;35.60;31.40;;;;;;4947428;28;19917;-88
2022/05/12 15:20:17;;;;;;;;;;;36.10;31.00;;;;;;4977312;28;19910;-88
2022/05/12 15:22:44;;;;;;;;;;;36.20;30.50;;;;;;4952415;28;19918;-89
2022/05/12 15:25:15;;;;;;;;;;;36.00;30.40;;;;;;4971543;28;19910;-87
2022/05/12 15:27:56;;;;;;;;;;;35.00;30.00;;;;;;4965957;28;19910;-89
2022/05/12 15:30:34;;;;;;;;;;;33.40;31.40;;;;;;4957953;28;19910;-88
2022/05/12 15:33:24;;;;;;;;;;;31.80;33.00;;;;;;4977780;28;19910;-88
2022/05/12 15:35:53;;;;;;;;;;;30.30;34.40;;;;;;4958996;28;19933;-88
2022/05/12 15:38:48;;;;;;;;;;;29.40;35.10;;;;;;4978310;28;19910;-87
2022/05/12 15:41:28;;;;;;;;;;;28.70;35.90;;;;;;4982491;28;19925;-87